createdAt,value
2023-05-22T00:00:21.058Z,63.33
2023-05-22T00:01:49.555Z,63.53
2023-05-22T00:02:57.505Z,63.85
2023-05-22T00:04:04.783Z,63.94
2023-05-22T00:05:12.032Z,63.84
2023-05-22T00:06:18.744Z,63.75
2023-05-22T00:07:24.978Z,64.01
2023-05-22T00:08:31.132Z,63.99
2023-05-22T00:09:36.992Z,64.20
2023-05-22T00:10:43.573Z,64.26
2023-05-22T00:11:49.587Z,64.17
2023-05-22T00:12:55.721Z,64.30
2023-05-22T00:14:09.671Z,64.16
2023-05-22T00:15:15.622Z,64.17
2023-05-22T00:16:22.466Z,64.33
2023-05-22T00:17:30.844Z,64.60
2023-05-22T00:18:36.947Z,64.61
2023-05-22T00:19:43.318Z,64.42
2023-05-22T00:20:50.479Z,64.78
2023-05-22T00:21:56.402Z,64.73
2023-05-22T00:23:03.889Z,65.03
2023-05-22T00:24:11.075Z,65.48
2023-05-22T00:25:20.512Z,65.39
2023-05-22T00:26:26.518Z,65.01
2023-05-22T00:27:33.064Z,64.99
2023-05-22T00:28:39.265Z,64.99
2023-05-22T00:29:45.273Z,64.65
2023-05-22T00:30:52.918Z,64.58
2023-05-22T00:31:59.290Z,64.39
2023-05-22T00:33:05.399Z,64.59
2023-05-22T00:34:11.583Z,65.07
2023-05-22T00:35:18.341Z,65.05
2023-05-22T00:36:24.944Z,64.95
2023-05-22T00:37:31.495Z,64.59
2023-05-22T00:38:38.466Z,64.42
2023-05-22T00:39:44.687Z,64.53
2023-05-22T00:40:50.978Z,64.59
2023-05-22T00:41:57.151Z,64.57
2023-05-22T00:43:09.684Z,64.54
2023-05-22T00:44:17.222Z,64.32
2023-05-22T00:45:24.700Z,64.19
2023-05-22T00:46:31.697Z,64.34
2023-05-22T00:47:38.196Z,64.19
2023-05-22T00:48:44.152Z,64.07
2023-05-22T00:49:50.237Z,64.06
2023-05-22T00:50:59.537Z,64.01
2023-05-22T00:52:08.577Z,64.05
2023-05-22T00:53:16.067Z,63.91
2023-05-22T00:54:22.777Z,63.85
2023-05-22T00:55:28.873Z,63.85
2023-05-22T00:56:36.121Z,63.76
2023-05-22T00:57:43.632Z,63.84
2023-05-22T00:58:51.008Z,63.88
2023-05-22T00:59:56.921Z,63.75
2023-05-22T01:01:02.807Z,63.65
2023-05-22T01:02:09.075Z,63.71
2023-05-22T01:03:16.130Z,63.68
2023-05-22T01:04:22.172Z,63.82
2023-05-22T01:05:28.211Z,63.64
2023-05-22T01:06:34.062Z,63.61
2023-05-22T01:07:41.341Z,63.68
2023-05-22T01:08:47.371Z,63.46
2023-05-22T01:09:53.509Z,63.15
2023-05-22T01:11:05.090Z,63.09
2023-05-22T01:12:27.646Z,63.40
2023-05-22T01:13:45.093Z,63.34
2023-05-22T01:15:00.307Z,63.18
2023-05-22T01:16:22.692Z,63.23
2023-05-22T01:17:42.029Z,63.05
2023-05-22T01:18:57.094Z,63.10
2023-05-22T01:20:14.458Z,63.21
2023-05-22T01:21:26.341Z,63.15
2023-05-22T01:23:02.904Z,63.08
2023-05-22T01:24:52.070Z,63.32
2023-05-22T01:26:19.620Z,63.10
2023-05-22T01:27:39.854Z,62.60
2023-05-22T01:29:14.744Z,62.43
2023-05-22T01:30:39.488Z,62.37
2023-05-22T01:31:49.130Z,62.21
2023-05-22T01:32:58.586Z,62.06
2023-05-22T01:34:07.877Z,62.17
2023-05-22T01:35:18.991Z,62.11
2023-05-22T01:36:31.063Z,62.14
2023-05-22T01:37:39.066Z,62.03
2023-05-22T01:38:46.735Z,61.87
2023-05-22T01:39:54.957Z,61.79
2023-05-22T01:41:01.811Z,61.93
2023-05-22T01:42:09.054Z,61.73
2023-05-22T01:43:16.246Z,61.59
2023-05-22T01:44:23.600Z,61.49
2023-05-22T01:45:31.797Z,61.35
2023-05-22T01:46:37.927Z,61.34
2023-05-22T01:47:45.331Z,61.30
2023-05-22T01:48:51.258Z,61.13
2023-05-22T01:49:57.197Z,61.09
2023-05-22T01:51:08.593Z,61.25
2023-05-22T01:52:24.326Z,61.22
2023-05-22T01:53:39.965Z,61.11
2023-05-22T01:54:52.899Z,60.95
2023-05-22T01:56:06.950Z,60.98
2023-05-22T01:57:22.069Z,61.15
2023-05-22T01:58:40.152Z,61.09
2023-05-22T01:59:49.900Z,61.08
2023-05-22T02:01:01.093Z,60.86
2023-05-22T02:02:11.077Z,60.85
2023-05-22T02:03:23.067Z,60.74
2023-05-22T02:04:33.057Z,60.62
2023-05-22T02:05:41.625Z,60.71
2023-05-22T02:06:48.935Z,60.69
2023-05-22T02:07:58.505Z,60.81
2023-05-22T02:09:05.817Z,61.58
2023-05-22T02:10:14.967Z,61.53
2023-05-22T02:11:19.849Z,61.67
2023-05-22T02:12:27.366Z,61.82
2023-05-22T02:13:38.107Z,62.28
2023-05-22T02:14:44.774Z,62.65
2023-05-22T02:15:53.235Z,62.84
2023-05-22T02:17:02.434Z,62.88
2023-05-22T02:18:14.678Z,63.24
2023-05-22T02:19:22.451Z,63.29
2023-05-22T02:20:29.418Z,63.20
2023-05-22T02:21:37.342Z,63.18
2023-05-22T02:22:46.205Z,63.01
2023-05-22T02:23:52.102Z,63.24
2023-05-22T02:24:58.139Z,63.24
2023-05-22T02:26:05.951Z,63.18
2023-05-22T02:27:12.137Z,63.38
2023-05-22T02:28:18.555Z,63.51
2023-05-22T02:29:25.344Z,63.71
2023-05-22T02:30:31.319Z,63.72
2023-05-22T02:31:37.715Z,63.77
2023-05-22T02:32:44.535Z,63.75
2023-05-22T02:33:52.455Z,63.78
2023-05-22T02:34:59.493Z,64.00
2023-05-22T02:36:12.501Z,64.00
2023-05-22T02:37:18.857Z,64.12
2023-05-22T02:38:25.064Z,64.12
2023-05-22T02:39:31.275Z,64.22
2023-05-22T02:40:38.443Z,64.19
2023-05-22T02:41:45.641Z,64.56
2023-05-22T02:42:52.613Z,64.50
2023-05-22T02:43:59.664Z,64.94
2023-05-22T02:45:07.504Z,65.19
2023-05-22T02:46:14.682Z,65.08
2023-05-22T02:47:20.783Z,64.87
2023-05-22T02:48:29.798Z,65.05
2023-05-22T02:49:36.058Z,65.03
2023-05-22T02:50:44.660Z,65.33
2023-05-22T02:51:50.704Z,65.45
2023-05-22T02:52:56.576Z,65.21
2023-05-22T02:54:04.555Z,65.25
2023-05-22T02:55:12.583Z,65.28
2023-05-22T02:56:20.837Z,65.18
2023-05-22T02:57:27.212Z,64.94
2023-05-22T02:58:33.264Z,64.77
2023-05-22T02:59:39.298Z,64.81
2023-05-22T03:00:45.380Z,65.08
2023-05-22T03:01:54.851Z,65.09
2023-05-22T03:03:01.382Z,65.09
2023-05-22T03:04:09.043Z,64.69
2023-05-22T03:05:18.270Z,64.57
2023-05-22T03:06:25.515Z,64.59
2023-05-22T03:07:31.871Z,64.44
2023-05-22T03:08:42.154Z,64.18
2023-05-22T03:09:48.391Z,64.21
2023-05-22T03:10:54.538Z,64.10
2023-05-22T03:12:00.916Z,63.98
2023-05-22T03:13:07.349Z,63.91
2023-05-22T03:14:13.434Z,63.67
2023-05-22T03:15:19.740Z,63.62
2023-05-22T03:16:26.449Z,63.50
2023-05-22T03:17:33.758Z,63.53
2023-05-22T03:18:39.979Z,63.32
2023-05-22T03:19:45.869Z,63.33
2023-05-22T03:20:52.612Z,63.28
2023-05-22T03:21:58.557Z,63.25
2023-05-22T03:23:06.888Z,63.20
2023-05-22T03:24:13.179Z,63.21
2023-05-22T03:25:22.734Z,63.18
2023-05-22T03:26:29.024Z,63.20
2023-05-22T03:27:35.741Z,63.11
2023-05-22T03:28:41.914Z,63.19
2023-05-22T03:29:47.835Z,63.30
2023-05-22T03:30:55.803Z,63.27
2023-05-22T03:32:06.136Z,63.31
2023-05-22T03:33:12.091Z,63.39
2023-05-22T03:34:18.370Z,63.35
2023-05-22T03:35:26.517Z,63.51
2023-05-22T03:36:35.516Z,63.45
2023-05-22T03:37:41.409Z,63.51
2023-05-22T03:38:47.823Z,63.44
2023-05-22T03:39:54.070Z,63.52
2023-05-22T03:41:00.359Z,63.40
2023-05-22T03:42:07.824Z,63.49
2023-05-22T03:43:15.176Z,63.45
2023-05-22T03:44:21.286Z,63.53
2023-05-22T03:45:27.030Z,63.44
2023-05-22T03:46:33.083Z,63.32
2023-05-22T03:47:39.383Z,63.36
2023-05-22T03:48:45.759Z,63.25
2023-05-22T03:49:51.858Z,63.01
2023-05-22T03:50:57.788Z,62.92
2023-05-22T03:52:04.518Z,62.84
2023-05-22T03:53:10.769Z,62.73
2023-05-22T03:54:16.950Z,62.56
2023-05-22T03:55:23.786Z,62.40
2023-05-22T03:56:29.664Z,62.37
2023-05-22T03:57:35.985Z,62.32
2023-05-22T03:58:42.347Z,62.25
2023-05-22T03:59:48.621Z,62.20
2023-05-22T04:00:59.815Z,62.09
2023-05-22T04:02:07.442Z,62.03
2023-05-22T04:03:15.569Z,62.02
2023-05-22T04:04:34.218Z,61.81
2023-05-22T04:05:40.883Z,61.69
2023-05-22T04:06:47.554Z,61.70
2023-05-22T04:07:53.987Z,61.72
2023-05-22T04:09:01.674Z,61.62
2023-05-22T04:10:10.551Z,61.46
2023-05-22T04:11:16.446Z,61.45
2023-05-22T04:12:22.922Z,61.40
2023-05-22T04:13:31.565Z,61.21
2023-05-22T04:14:37.872Z,61.25
2023-05-22T04:15:46.839Z,61.00
2023-05-22T04:16:53.166Z,61.02
2023-05-22T04:18:00.276Z,60.86
2023-05-22T04:19:09.789Z,60.71
2023-05-22T04:20:18.424Z,60.62
2023-05-22T04:21:25.134Z,60.69
2023-05-22T04:22:31.382Z,60.78
2023-05-22T04:23:38.894Z,60.92
2023-05-22T04:24:49.347Z,60.99
2023-05-22T04:25:55.880Z,61.02
2023-05-22T04:27:02.894Z,61.20
2023-05-22T04:28:10.180Z,61.19
2023-05-22T04:29:25.285Z,61.36
2023-05-22T04:30:34.767Z,61.59
2023-05-22T04:31:41.199Z,61.64
2023-05-22T04:32:47.655Z,61.54
2023-05-22T04:33:57.624Z,61.64
2023-05-22T04:35:05.003Z,61.61
2023-05-22T04:36:12.629Z,61.63
2023-05-22T04:37:21.426Z,61.50
2023-05-22T04:38:27.538Z,61.53
2023-05-22T04:39:34.372Z,61.45
2023-05-22T04:40:42.085Z,61.34
2023-05-22T04:41:50.063Z,61.35
2023-05-22T04:43:00.079Z,61.31
2023-05-22T04:44:07.433Z,61.27
2023-05-22T04:45:15.169Z,61.36
2023-05-22T04:46:22.018Z,62.17
2023-05-22T04:47:29.084Z,63.04
2023-05-22T04:48:38.175Z,62.87
2023-05-22T04:49:46.002Z,62.31
2023-05-22T04:50:55.901Z,62.73
2023-05-22T04:52:06.219Z,62.55
2023-05-22T04:53:16.750Z,62.73
2023-05-22T04:54:22.959Z,62.22
2023-05-22T04:55:28.997Z,61.69
2023-05-22T04:56:37.161Z,61.69
2023-05-22T04:57:47.658Z,61.13
2023-05-22T04:58:53.983Z,59.80
2023-05-22T05:00:00.406Z,59.39
2023-05-22T05:01:06.913Z,59.14
2023-05-22T05:02:13.448Z,58.67
2023-05-22T05:03:19.722Z,58.40
2023-05-22T05:04:26.377Z,57.67
2023-05-22T05:05:32.357Z,57.33
2023-05-22T05:06:38.821Z,57.77
2023-05-22T05:07:49.851Z,57.38
2023-05-22T05:08:57.601Z,57.48
2023-05-22T05:10:04.299Z,57.19
2023-05-22T05:11:10.290Z,56.88
2023-05-22T05:12:17.256Z,56.66
2023-05-22T05:13:23.618Z,55.80
2023-05-22T05:14:35.640Z,55.17
2023-05-22T05:15:41.444Z,55.31
2023-05-22T05:16:48.015Z,55.30
2023-05-22T05:17:54.569Z,55.15
2023-05-22T05:19:01.541Z,55.36
2023-05-22T05:20:15.352Z,55.20
2023-05-22T05:21:22.285Z,54.88
2023-05-22T05:22:29.602Z,54.70
2023-05-22T05:23:36.843Z,55.07
2023-05-22T05:24:43.715Z,55.02
2023-05-22T05:25:49.656Z,54.78
2023-05-22T05:26:56.111Z,54.47
2023-05-22T05:28:02.114Z,54.16
2023-05-22T05:29:08.923Z,53.90
2023-05-22T05:30:16.454Z,53.81
2023-05-22T05:31:27.027Z,53.37
2023-05-22T05:32:33.758Z,52.70
2023-05-22T05:33:40.070Z,52.61
2023-05-22T05:34:46.838Z,52.53
2023-05-22T05:35:52.950Z,52.77
2023-05-22T05:37:00.573Z,52.23
2023-05-22T05:38:06.838Z,51.76
2023-05-22T05:39:13.409Z,51.83
2023-05-22T05:40:20.973Z,51.91
2023-05-22T05:41:27.115Z,51.21
2023-05-22T05:42:32.861Z,51.18
2023-05-22T05:43:38.906Z,49.38
2023-05-22T05:44:44.989Z,49.32
2023-05-22T05:45:51.194Z,49.20
2023-05-22T05:46:57.591Z,48.86
2023-05-22T05:48:04.303Z,48.82
2023-05-22T05:49:11.261Z,49.26
2023-05-22T05:50:17.305Z,49.04
2023-05-22T05:51:23.358Z,48.73
2023-05-22T05:52:33.082Z,48.67
2023-05-22T05:53:41.205Z,48.56
2023-05-22T05:54:48.285Z,48.04
2023-05-22T05:55:54.588Z,47.53
2023-05-22T05:57:00.964Z,47.72
2023-05-22T05:58:07.647Z,47.66
2023-05-22T05:59:13.786Z,47.63
2023-05-22T06:00:23.332Z,47.51
2023-05-22T06:01:31.531Z,46.96
2023-05-22T06:02:39.487Z,46.40
2023-05-22T06:03:47.044Z,46.20
2023-05-22T06:04:54.068Z,46.20
2023-05-22T06:06:00.304Z,45.93
2023-05-22T06:07:07.226Z,45.63
2023-05-22T06:08:13.887Z,45.82
2023-05-22T06:09:21.044Z,44.86
2023-05-22T06:10:27.200Z,42.77
2023-05-22T06:11:33.225Z,42.11
2023-05-22T06:12:39.043Z,41.89
2023-05-22T06:13:44.898Z,42.40
2023-05-22T06:14:52.509Z,41.43
2023-05-22T06:16:01.694Z,42.24
2023-05-22T06:17:11.671Z,41.96
2023-05-22T06:18:18.083Z,41.72
2023-05-22T06:19:24.420Z,42.10
2023-05-22T06:20:33.489Z,42.44
2023-05-22T06:21:39.968Z,43.13
2023-05-22T06:22:46.710Z,42.63
2023-05-22T06:23:53.057Z,41.33
2023-05-22T06:24:59.347Z,41.18
2023-05-22T06:26:05.914Z,41.23
2023-05-22T06:27:12.696Z,41.74
2023-05-22T06:28:18.835Z,41.19
2023-05-22T06:29:25.882Z,41.50
2023-05-22T06:31:45.546Z,41.22
2023-05-22T06:32:52.911Z,41.57
2023-05-22T06:34:00.523Z,41.01
2023-05-22T06:35:08.981Z,41.15
2023-05-22T06:36:17.823Z,41.55
2023-05-22T06:37:24.022Z,42.11
2023-05-22T06:38:30.164Z,41.45
2023-05-22T06:39:36.424Z,41.19
2023-05-22T06:40:42.414Z,39.53
2023-05-22T06:41:48.524Z,39.23
2023-05-22T06:42:55.139Z,39.45
2023-05-22T06:44:02.160Z,39.92
2023-05-22T06:45:11.619Z,40.64
2023-05-22T06:46:17.862Z,40.61
2023-05-22T06:47:24.643Z,41.12
2023-05-22T06:48:36.308Z,41.35
2023-05-22T06:49:42.735Z,41.11
2023-05-22T06:50:48.915Z,41.11
2023-05-22T06:51:57.454Z,40.86
2023-05-22T06:53:04.101Z,40.39
2023-05-22T06:54:12.429Z,40.60
2023-05-22T06:55:18.609Z,41.80
2023-05-22T06:56:25.425Z,41.40
2023-05-22T06:57:31.974Z,41.32
2023-05-22T06:58:39.353Z,41.54
2023-05-22T06:59:46.000Z,41.43
2023-05-22T07:00:52.475Z,40.58
2023-05-22T07:01:59.023Z,40.31
2023-05-22T07:03:07.357Z,40.33
2023-05-22T07:04:14.416Z,40.87
2023-05-22T07:05:21.036Z,40.49
2023-05-22T07:06:28.742Z,39.82
2023-05-22T07:07:35.995Z,40.21
2023-05-22T07:08:42.003Z,40.05
2023-05-22T07:09:49.220Z,40.55
2023-05-22T07:10:55.230Z,40.27
2023-05-22T07:12:01.474Z,39.93
2023-05-22T07:13:07.464Z,39.27
2023-05-22T07:14:14.339Z,39.95
2023-05-22T07:15:23.506Z,39.38
2023-05-22T07:16:31.562Z,39.44
2023-05-22T07:17:38.432Z,39.54
2023-05-22T07:18:46.305Z,39.00
2023-05-22T07:19:52.145Z,38.74
2023-05-22T07:20:59.330Z,37.87
2023-05-22T07:22:05.713Z,36.52
2023-05-22T07:23:12.767Z,36.69
2023-05-22T07:24:18.602Z,37.24
2023-05-22T07:25:25.041Z,35.94
2023-05-22T07:26:31.600Z,35.64
2023-05-22T07:27:40.775Z,36.12
2023-05-22T07:28:46.905Z,35.99
2023-05-22T07:29:53.413Z,36.59
2023-05-22T07:31:01.918Z,36.45
2023-05-22T07:32:08.624Z,37.01
2023-05-22T07:33:14.922Z,36.87
2023-05-22T07:34:22.881Z,36.86
2023-05-22T07:35:28.782Z,37.42
2023-05-22T07:36:35.361Z,36.55
2023-05-22T07:37:42.576Z,36.80
2023-05-22T07:38:49.205Z,36.71
2023-05-22T07:39:55.694Z,36.69
2023-05-22T07:41:03.368Z,36.53
2023-05-22T07:42:10.026Z,36.73
2023-05-22T07:43:16.275Z,36.53
2023-05-22T07:44:22.719Z,36.51
2023-05-22T07:45:29.619Z,37.16
2023-05-22T07:46:39.538Z,37.36
2023-05-22T07:47:45.746Z,37.57
2023-05-22T07:48:52.410Z,36.72
2023-05-22T07:49:58.921Z,36.93
2023-05-22T07:51:06.048Z,36.93
2023-05-22T07:52:12.300Z,37.04
2023-05-22T07:53:18.436Z,36.71
2023-05-22T07:54:24.773Z,37.07
2023-05-22T07:55:31.187Z,37.73
2023-05-22T07:56:41.354Z,37.88
2023-05-22T07:57:47.486Z,37.85
2023-05-22T07:58:56.209Z,37.98
2023-05-22T08:00:06.910Z,37.19
2023-05-22T08:01:13.087Z,37.09
2023-05-22T08:02:19.546Z,36.88
2023-05-22T08:03:26.239Z,36.61
2023-05-22T08:04:33.824Z,36.61
2023-05-22T08:05:40.120Z,36.66
2023-05-22T08:06:46.564Z,37.05
2023-05-22T08:07:53.254Z,37.07
2023-05-22T08:09:00.149Z,37.21
2023-05-22T08:10:15.085Z,36.88
2023-05-22T08:11:21.637Z,36.88
2023-05-22T08:12:27.595Z,36.84
2023-05-22T08:13:34.186Z,37.06
2023-05-22T08:14:40.319Z,36.50
2023-05-22T08:15:46.757Z,37.08
2023-05-22T08:16:52.631Z,37.48
2023-05-22T08:17:59.640Z,37.85
2023-05-22T08:19:09.735Z,37.95
2023-05-22T08:20:17.121Z,37.68
2023-05-22T08:21:23.509Z,37.79
2023-05-22T08:22:34.916Z,37.81
2023-05-22T08:23:41.577Z,36.58
2023-05-22T08:24:47.586Z,36.98
2023-05-22T08:25:53.657Z,36.98
2023-05-22T08:27:02.188Z,36.65
2023-05-22T08:28:08.449Z,37.25
2023-05-22T08:29:14.718Z,37.47
2023-05-22T08:30:21.277Z,37.95
2023-05-22T08:31:31.297Z,37.91
2023-05-22T08:32:38.118Z,37.58
2023-05-22T08:33:45.053Z,37.38
2023-05-22T08:34:51.434Z,36.51
2023-05-22T08:35:57.779Z,36.92
2023-05-22T08:37:06.073Z,36.74
2023-05-22T08:38:12.061Z,36.83
2023-05-22T08:39:21.743Z,36.21
2023-05-22T08:40:35.579Z,36.06
2023-05-22T08:41:43.937Z,36.46
2023-05-22T08:42:54.666Z,36.06
2023-05-22T08:44:01.238Z,35.91
2023-05-22T08:45:10.353Z,34.91
2023-05-22T08:46:28.090Z,33.55
2023-05-22T08:47:37.666Z,33.96
2023-05-22T08:48:48.022Z,33.49
2023-05-22T08:49:59.095Z,34.02
2023-05-22T08:51:08.207Z,34.09
2023-05-22T08:52:19.251Z,33.90
2023-05-22T08:53:28.288Z,33.50
2023-05-22T08:54:37.022Z,33.51
2023-05-22T08:55:43.323Z,33.48
2023-05-22T08:56:56.666Z,33.58
2023-05-22T08:58:06.362Z,33.98
2023-05-22T08:59:13.919Z,33.99
2023-05-22T09:00:23.351Z,34.23
2023-05-22T09:01:33.489Z,34.58
2023-05-22T09:02:42.861Z,34.82
2023-05-22T09:03:52.278Z,34.42
2023-05-22T09:04:58.939Z,34.91
2023-05-22T09:06:11.001Z,35.09
2023-05-22T09:07:17.196Z,34.43
2023-05-22T09:08:25.203Z,34.07
2023-05-22T09:09:31.413Z,33.33
2023-05-22T09:10:37.987Z,32.46
2023-05-22T09:11:44.290Z,31.79
2023-05-22T09:13:04.529Z,31.99
2023-05-22T09:14:11.869Z,31.68
2023-05-22T09:15:20.988Z,32.10
2023-05-22T09:16:27.458Z,32.62
2023-05-22T09:17:34.041Z,32.11
2023-05-22T09:18:43.034Z,32.16
2023-05-22T09:19:47.488Z,32.60
2023-05-22T09:20:53.247Z,32.62
2023-05-22T09:22:04.473Z,30.83
2023-05-22T09:23:18.372Z,30.94
2023-05-22T09:24:24.367Z,30.78
2023-05-22T09:25:32.063Z,30.85
2023-05-22T09:26:39.985Z,30.21
2023-05-22T09:27:49.637Z,30.92
2023-05-22T09:28:55.535Z,31.21
2023-05-22T09:30:01.425Z,31.37
2023-05-22T09:31:09.702Z,31.24
2023-05-22T09:32:16.451Z,30.25
2023-05-22T09:33:23.238Z,30.10
2023-05-22T09:34:34.078Z,29.35
2023-05-22T09:35:42.669Z,29.20
2023-05-22T09:36:50.134Z,28.96
2023-05-22T09:37:57.961Z,29.31
2023-05-22T09:39:06.130Z,29.41
2023-05-22T09:40:14.294Z,28.98
2023-05-22T09:41:24.675Z,29.59
2023-05-22T09:42:31.886Z,29.80
2023-05-22T09:43:37.852Z,30.29
2023-05-22T09:44:47.874Z,30.25
2023-05-22T09:45:58.260Z,30.60
2023-05-22T09:47:06.389Z,30.41
2023-05-22T09:48:14.150Z,30.23
2023-05-22T09:49:20.880Z,30.22
2023-05-22T09:50:27.335Z,29.77
2023-05-22T09:51:37.512Z,29.29
2023-05-22T09:52:48.133Z,28.14
2023-05-22T09:54:03.516Z,27.11
2023-05-22T09:55:10.796Z,27.71
2023-05-22T09:56:37.822Z,27.29
2023-05-22T09:57:52.221Z,26.97
2023-05-22T09:58:59.495Z,27.18
2023-05-22T10:00:14.418Z,27.33
2023-05-22T10:01:22.375Z,27.01
2023-05-22T10:02:32.811Z,27.22
2023-05-22T10:03:40.976Z,27.22
2023-05-22T10:04:51.077Z,27.28
2023-05-22T10:05:58.602Z,27.60
2023-05-22T10:07:06.989Z,27.63
2023-05-22T10:08:21.469Z,27.71
2023-05-22T10:09:36.095Z,27.78
2023-05-22T10:10:43.482Z,28.11
2023-05-22T10:11:52.487Z,27.90
2023-05-22T10:13:05.033Z,27.72
2023-05-22T10:14:11.876Z,27.61
2023-05-22T10:15:21.478Z,27.66
2023-05-22T10:16:31.456Z,27.31
2023-05-22T10:17:38.259Z,27.44
2023-05-22T10:18:49.105Z,27.09
2023-05-22T10:19:57.637Z,27.28
2023-05-22T10:21:04.778Z,27.34
2023-05-22T10:22:11.505Z,27.45
2023-05-22T10:23:19.408Z,28.01
2023-05-22T10:24:26.058Z,26.23
2023-05-22T10:25:32.546Z,26.17
2023-05-22T10:26:39.517Z,26.20
2023-05-22T10:27:46.178Z,25.88
2023-05-22T10:29:00.618Z,25.86
2023-05-22T10:30:21.129Z,25.82
2023-05-22T10:31:38.904Z,25.84
2023-05-22T10:32:52.478Z,26.00
2023-05-22T10:34:05.668Z,26.04
2023-05-22T10:35:19.997Z,25.76
2023-05-22T10:36:38.443Z,26.06
2023-05-22T10:37:51.196Z,25.93
2023-05-22T10:39:15.156Z,26.05
2023-05-22T10:40:29.405Z,25.99
2023-05-22T10:41:37.374Z,26.29
2023-05-22T10:42:46.693Z,26.27
2023-05-22T10:43:58.602Z,25.26
2023-05-22T10:45:07.581Z,25.07
2023-05-22T10:46:15.522Z,24.83
2023-05-22T10:47:20.766Z,24.83
2023-05-22T10:48:27.317Z,24.71
2023-05-22T10:49:34.300Z,24.41
2023-05-22T10:50:53.270Z,25.15
2023-05-22T10:52:00.241Z,25.63
2023-05-22T10:53:23.374Z,25.52
2023-05-22T10:54:42.473Z,25.05
2023-05-22T10:55:54.796Z,24.55
2023-05-22T10:57:14.471Z,24.47
2023-05-22T10:58:29.025Z,24.70
2023-05-22T10:59:38.038Z,24.41
2023-05-22T11:00:44.484Z,24.59
2023-05-22T11:02:05.639Z,24.65
2023-05-22T11:03:18.305Z,24.48
2023-05-22T11:04:28.762Z,24.75
2023-05-22T11:05:40.449Z,25.14
2023-05-22T11:06:49.277Z,25.22
2023-05-22T11:08:11.059Z,25.43
2023-05-22T11:09:29.218Z,25.54
2023-05-22T11:10:57.705Z,25.93
2023-05-22T11:12:28.011Z,26.00
2023-05-22T11:13:34.491Z,26.34
2023-05-22T11:14:43.354Z,26.22
2023-05-22T11:15:50.248Z,26.20
2023-05-22T11:17:01.919Z,26.65
2023-05-22T11:18:08.766Z,26.66
2023-05-22T11:19:24.099Z,26.84
2023-05-22T11:20:40.086Z,26.36
2023-05-22T11:21:49.008Z,26.62
2023-05-22T11:23:05.624Z,26.84
2023-05-22T11:24:12.264Z,26.95
2023-05-22T11:25:20.096Z,26.95
2023-05-22T11:26:28.079Z,26.89
2023-05-22T11:27:34.688Z,26.91
2023-05-22T11:28:44.105Z,26.51
2023-05-22T11:29:51.576Z,26.61
2023-05-22T11:30:59.926Z,27.05
2023-05-22T11:32:08.731Z,27.16
2023-05-22T11:33:13.489Z,26.66
2023-05-22T11:34:20.871Z,26.71
2023-05-22T11:35:32.787Z,25.80
2023-05-22T11:36:38.986Z,24.63
2023-05-22T11:37:46.466Z,24.65
2023-05-22T11:38:57.846Z,24.81
2023-05-22T11:40:06.120Z,24.89
2023-05-22T11:41:13.229Z,25.11
2023-05-22T11:42:20.778Z,25.53
2023-05-22T11:43:34.850Z,24.68
2023-05-22T11:44:42.605Z,24.65
2023-05-22T11:45:48.850Z,24.30
2023-05-22T11:46:55.745Z,24.64
2023-05-22T11:48:02.180Z,24.69
2023-05-22T11:49:13.541Z,24.77
2023-05-22T11:50:33.512Z,25.22
2023-05-22T11:51:45.867Z,25.30
2023-05-22T11:52:54.211Z,25.58
2023-05-22T11:54:00.695Z,24.83
2023-05-22T11:55:12.245Z,23.84
2023-05-22T11:56:22.845Z,24.61
2023-05-22T11:57:29.258Z,24.67
2023-05-22T11:58:37.084Z,24.40
2023-05-22T11:59:47.335Z,24.23
2023-05-22T12:00:58.239Z,24.57
2023-05-22T12:02:04.938Z,24.29
2023-05-22T12:03:12.119Z,23.92
2023-05-22T12:04:19.154Z,24.14
2023-05-22T12:05:25.178Z,24.22
2023-05-22T12:06:34.539Z,23.73
2023-05-22T12:07:40.946Z,23.91
2023-05-22T12:08:47.233Z,24.10
2023-05-22T12:09:56.250Z,24.33
2023-05-22T12:11:07.523Z,24.77
2023-05-22T12:12:15.629Z,24.56
2023-05-22T12:13:28.917Z,24.43
2023-05-22T12:14:34.961Z,24.24
2023-05-22T12:15:41.457Z,24.44
2023-05-22T12:16:53.467Z,24.36
2023-05-22T12:18:01.693Z,24.63
2023-05-22T12:19:09.523Z,24.49
2023-05-22T12:20:16.218Z,24.45
2023-05-22T12:21:22.844Z,25.18
2023-05-22T12:22:30.031Z,25.50
2023-05-22T12:23:35.855Z,24.62
2023-05-22T12:24:46.603Z,24.44
2023-05-22T12:26:01.165Z,24.59
2023-05-22T12:27:15.326Z,24.34
2023-05-22T12:28:21.445Z,24.81
2023-05-22T12:29:27.766Z,24.87
2023-05-22T12:30:43.045Z,25.01
2023-05-22T12:31:50.592Z,25.14
2023-05-22T12:32:59.181Z,25.10
2023-05-22T12:34:08.606Z,25.27
2023-05-22T12:35:19.324Z,24.63
2023-05-22T12:36:33.679Z,24.47
2023-05-22T12:37:39.663Z,24.36
2023-05-22T12:38:45.717Z,24.58
2023-05-22T12:40:00.902Z,24.96
2023-05-22T12:41:07.256Z,24.88
2023-05-22T12:42:13.193Z,25.07
2023-05-22T12:43:19.281Z,24.90
2023-05-22T12:44:26.693Z,25.09
2023-05-22T12:45:32.482Z,25.27
2023-05-22T12:46:38.685Z,25.45
2023-05-22T12:47:44.597Z,25.26
2023-05-22T12:48:50.735Z,25.25
2023-05-22T12:49:56.821Z,25.67
2023-05-22T12:51:03.036Z,25.74
2023-05-22T12:52:09.498Z,25.96
2023-05-22T12:53:15.718Z,25.68
2023-05-22T12:54:21.916Z,24.61
2023-05-22T12:55:28.263Z,24.39
2023-05-22T12:56:34.160Z,24.52
2023-05-22T12:57:41.001Z,25.22
2023-05-22T12:58:46.905Z,25.12
2023-05-22T12:59:52.733Z,24.51
2023-05-22T13:00:59.019Z,24.28
2023-05-22T13:02:06.156Z,24.59
2023-05-22T13:03:13.490Z,25.00
2023-05-22T13:04:20.656Z,25.23
2023-05-22T13:05:26.626Z,24.70
2023-05-22T13:06:32.549Z,24.24
2023-05-22T13:07:39.295Z,24.36
2023-05-22T13:08:45.032Z,24.41
2023-05-22T13:09:51.979Z,24.13
2023-05-22T13:10:58.275Z,23.95
2023-05-22T13:12:05.061Z,23.45
2023-05-22T13:13:12.091Z,22.75
2023-05-22T13:14:18.574Z,22.20
2023-05-22T13:15:31.262Z,22.31
2023-05-22T13:16:37.758Z,22.09
2023-05-22T13:17:47.980Z,21.55
2023-05-22T13:18:54.435Z,21.51
2023-05-22T13:20:01.053Z,21.31
2023-05-22T13:21:07.558Z,20.49
2023-05-22T13:22:15.156Z,20.25
2023-05-22T13:23:21.105Z,20.49
2023-05-22T13:24:27.212Z,20.23
2023-05-22T13:25:33.535Z,19.59
2023-05-22T13:26:39.585Z,19.83
2023-05-22T13:27:46.639Z,20.26
2023-05-22T13:28:52.889Z,20.43
2023-05-22T13:29:59.835Z,20.78
2023-05-22T13:31:06.800Z,19.88
2023-05-22T13:32:13.986Z,20.05
2023-05-22T13:33:20.212Z,20.32
2023-05-22T13:34:26.643Z,21.00
2023-05-22T13:35:33.633Z,21.26
2023-05-22T13:36:40.742Z,20.97
2023-05-22T13:37:48.549Z,20.07
2023-05-22T13:38:54.496Z,19.90
2023-05-22T13:40:01.563Z,20.21
2023-05-22T13:41:07.722Z,20.07
2023-05-22T13:42:14.089Z,20.19
2023-05-22T13:43:20.212Z,19.49
2023-05-22T13:44:26.632Z,19.32
2023-05-22T13:45:33.246Z,18.75
2023-05-22T13:46:40.927Z,17.80
2023-05-22T13:47:48.011Z,17.58
2023-05-22T13:48:54.487Z,17.10
2023-05-22T13:50:00.317Z,17.38
2023-05-22T13:51:07.224Z,17.34
2023-05-22T13:52:13.656Z,17.32
2023-05-22T13:53:20.025Z,17.68
2023-05-22T13:54:26.606Z,17.29
2023-05-22T13:55:33.268Z,16.77
2023-05-22T13:56:40.989Z,16.76
2023-05-22T13:57:46.712Z,16.39
2023-05-22T13:58:53.184Z,16.35
2023-05-22T13:59:59.129Z,16.62
2023-05-22T14:01:06.027Z,16.91
2023-05-22T14:02:12.190Z,16.69
2023-05-22T14:03:19.569Z,16.72
2023-05-22T14:04:26.051Z,17.11
2023-05-22T14:05:32.221Z,16.94
2023-05-22T14:06:38.279Z,16.89
2023-05-22T14:07:44.616Z,16.63
2023-05-22T14:08:52.490Z,16.22
2023-05-22T14:10:00.524Z,15.99
2023-05-22T14:11:09.243Z,14.98
2023-05-22T14:12:15.366Z,14.85
2023-05-22T14:13:21.633Z,15.03
2023-05-22T14:14:28.096Z,13.92
2023-05-22T14:15:35.538Z,13.87
2023-05-22T14:16:42.345Z,13.42
2023-05-22T14:17:48.430Z,13.46
2023-05-22T14:18:57.122Z,13.28
2023-05-22T14:20:04.072Z,13.67
2023-05-22T14:21:09.856Z,14.01
2023-05-22T14:22:15.854Z,14.24
2023-05-22T14:23:22.639Z,14.92
2023-05-22T14:24:29.733Z,13.85
2023-05-22T14:25:35.866Z,13.29
2023-05-22T14:26:42.627Z,13.18
2023-05-22T14:27:49.077Z,13.62
2023-05-22T14:28:56.012Z,13.34
2023-05-22T14:30:02.688Z,12.85
2023-05-22T14:31:09.365Z,12.70
2023-05-22T14:32:15.550Z,12.89
2023-05-22T14:33:22.209Z,12.96
2023-05-22T14:34:30.063Z,13.14
2023-05-22T14:35:36.363Z,13.02
2023-05-22T14:36:43.088Z,12.96
2023-05-22T14:37:49.547Z,12.28
2023-05-22T14:38:57.379Z,12.16
2023-05-22T14:40:03.648Z,12.47
2023-05-22T14:41:12.537Z,12.70